Time;durP1;ratioP1;P1;durP2;ratioP2;P2;SDS_P1;SDS_P2;PMS_P1;PMS_P2;Temp;Humidity;BMP_temperature;BMP_pressure;BME280_temperature;BME280_humidity;BME280_pressure;Samples;Min_cycle;Max_cycle;Signal;HPM_P1;HPM_P2
2021/07/21 00:02:03;;;;;;;1.80;1.20;;;20.80;99.90;;;;;;5052568;28;20424;-63
2021/07/21 00:04:30;;;;;;;2.50;1.20;;;20.80;99.90;;;;;;5053829;28;20461;-63
2021/07/21 00:06:57;;;;;;;2.33;1.30;;;20.80;99.90;;;;;;5053752;28;20741;-63
2021/07/21 00:09:24;;;;;;;1.70;1.10;;;20.70;99.90;;;;;;5053108;28;20499;-63
2021/07/21 00:14:38;;;;;;;1.70;1.10;;;20.60;99.90;;;;;;5054711;28;20444;-62
2021/07/21 00:17:06;;;;;;;1.92;1.10;;;20.50;99.90;;;;;;5054966;28;20496;-63
2021/07/21 00:22:18;;;;;;;1.90;1.20;;;20.40;99.90;;;;;;5054224;28;20408;-62
2021/07/21 00:24:45;;;;;;;1.80;1.30;;;20.30;99.90;;;;;;5054774;28;20445;-63
2021/07/21 00:27:12;;;;;;;1.58;1.10;;;20.30;99.90;;;;;;5054870;28;20512;-63
2021/07/21 00:29:40;;;;;;;2.28;1.20;;;20.30;99.90;;;;;;5053943;28;20476;-62
2021/07/21 00:32:08;;;;;;;2.08;1.10;;;20.40;99.90;;;;;;5053693;28;20560;-62
2021/07/21 00:34:35;;;;;;;2.20;1.00;;;20.50;99.90;;;;;;5053096;28;20436;-63
2021/07/21 00:37:02;;;;;;;2.00;1.30;;;20.50;99.90;;;;;;5053342;28;20512;-64
2021/07/21 00:39:29;;;;;;;3.05;1.40;;;20.50;99.90;;;;;;5052977;28;20777;-63
2021/07/21 00:41:56;;;;;;;1.65;1.27;;;20.40;99.90;;;;;;5052930;28;20508;-62
2021/07/21 00:44:23;;;;;;;1.73;1.07;;;20.30;99.90;;;;;;5053358;28;20749;-63
2021/07/21 00:46:51;;;;;;;2.25;1.20;;;20.30;99.90;;;;;;5053617;28;20795;-62
2021/07/21 00:49:18;;;;;;;2.00;1.20;;;20.30;99.90;;;;;;5054565;28;20520;-63
2021/07/21 00:51:45;;;;;;;1.80;1.10;;;20.30;99.90;;;;;;5058670;28;20876;-63
2021/07/21 00:54:12;;;;;;;2.40;1.02;;;20.20;99.90;;;;;;5058785;28;20531;-63
2021/07/21 00:56:40;;;;;;;1.90;1.10;;;20.10;99.90;;;;;;5058892;28;20464;-62
2021/07/21 00:59:06;;;;;;;2.10;1.30;;;20.10;99.90;;;;;;5058170;28;20515;-62
2021/07/21 01:01:34;;;;;;;2.40;1.00;;;20.20;99.90;;;;;;5057993;28;20459;-62
2021/07/21 01:04:04;;;;;;;2.40;1.30;;;20.20;99.90;;;;;;5058138;28;20465;-62
2021/07/21 01:06:31;;;;;;;1.85;1.25;;;20.20;99.90;;;;;;5058234;28;20785;-63
2021/07/21 01:08:59;;;;;;;1.80;1.10;;;20.20;99.90;;;;;;5056719;28;20841;-62
2021/07/21 01:11:31;;;;;;;1.80;1.30;;;20.20;99.90;;;;;;5056983;28;20435;-62
2021/07/21 01:14:04;;;;;;;1.70;1.20;;;20.20;99.90;;;;;;5057458;28;20532;-62
2021/07/21 01:16:35;;;;;;;2.03;1.10;;;20.10;99.90;;;;;;5058271;28;20875;-62
2021/07/21 01:19:10;;;;;;;3.30;1.00;;;20.10;99.90;;;;;;5056562;28;20429;-63
2021/07/21 01:22:08;;;;;;;3.83;1.20;;;20.00;99.90;;;;;;5057892;28;20421;-65
2021/07/21 01:24:48;;;;;;;1.77;1.20;;;20.00;99.90;;;;;;5057977;28;20888;-62
2021/07/21 01:27:24;;;;;;;2.30;1.10;;;19.90;99.90;;;;;;5058025;28;20456;-62
2021/07/21 01:29:53;;;;;;;2.17;1.10;;;19.90;99.90;;;;;;5057553;28;20439;-62
2021/07/21 01:32:23;;;;;;;2.30;1.20;;;20.00;99.90;;;;;;5057955;28;20425;-62
2021/07/21 01:34:55;;;;;;;1.80;1.10;;;20.00;99.90;;;;;;5057686;28;20476;-62
2021/07/21 01:37:23;;;;;;;2.75;1.20;;;20.00;99.90;;;;;;5056197;28;20421;-63
2021/07/21 01:39:58;;;;;;;2.10;1.40;;;19.90;99.90;;;;;;5055677;28;20524;-62
2021/07/21 01:42:26;;;;;;;2.35;1.10;;;19.80;99.90;;;;;;5055816;28;20548;-62
2021/07/21 01:44:56;;;;;;;1.90;1.30;;;19.70;99.90;;;;;;5056818;28;20731;-62
2021/07/21 01:47:23;;;;;;;2.10;1.20;;;19.60;99.90;;;;;;5056760;28;20519;-63
2021/07/21 01:49:52;;;;;;;3.10;1.30;;;19.60;99.90;;;;;;5057158;28;20510;-62
2021/07/21 01:52:24;;;;;;;2.78;1.20;;;19.60;99.90;;;;;;5057553;28;20444;-62
2021/07/21 01:54:53;;;;;;;4.40;1.20;;;19.50;99.90;;;;;;5057550;28;20900;-62
2021/07/21 01:57:20;;;;;;;2.10;1.20;;;19.50;99.90;;;;;;5057312;28;20456;-62
2021/07/21 01:59:50;;;;;;;1.90;1.10;;;19.60;99.90;;;;;;5057590;28;20425;-62
2021/07/21 02:02:21;;;;;;;2.30;1.10;;;19.50;99.90;;;;;;5057476;28;20428;-62
2021/07/21 02:04:49;;;;;;;2.00;1.10;;;19.40;99.90;;;;;;5057279;28;20460;-62
2021/07/21 02:07:16;;;;;;;2.70;1.10;;;19.40;99.90;;;;;;5057278;28;20503;-62
2021/07/21 02:09:46;;;;;;;2.40;1.20;;;19.40;99.90;;;;;;5056476;28;20532;-62
2021/07/21 02:12:13;;;;;;;2.60;1.10;;;19.50;99.90;;;;;;5057073;28;20440;-62
2021/07/21 02:14:42;;;;;;;1.85;1.20;;;19.50;99.90;;;;;;5057037;28;20437;-62
2021/07/21 02:17:11;;;;;;;2.20;1.20;;;19.40;99.90;;;;;;5056681;28;20884;-62
2021/07/21 02:19:38;;;;;;;3.45;1.27;;;19.50;99.90;;;;;;5056855;28;20916;-63
2021/07/21 02:22:06;;;;;;;2.10;1.42;;;19.40;99.90;;;;;;5056845;28;20421;-63
2021/07/21 02:24:34;;;;;;;3.10;1.30;;;19.40;99.90;;;;;;5056456;28;20895;-62
2021/07/21 02:27:01;;;;;;;2.58;1.27;;;19.30;99.90;;;;;;5056944;28;20480;-62
2021/07/21 02:29:28;;;;;;;2.47;1.40;;;19.30;99.90;;;;;;5056883;28;20516;-63
2021/07/21 02:32:03;;;;;;;1.88;1.20;;;19.30;99.90;;;;;;5056814;28;20512;-62
2021/07/21 02:34:31;;;;;;;2.13;1.50;;;19.30;99.90;;;;;;5056495;28;20438;-62
2021/07/21 02:36:59;;;;;;;2.20;1.10;;;19.20;99.90;;;;;;5057063;28;20460;-63
2021/07/21 02:39:26;;;;;;;2.45;1.40;;;19.10;99.90;;;;;;5055719;28;20525;-62
2021/07/21 02:41:54;;;;;;;3.03;1.20;;;19.00;99.90;;;;;;5056083;28;20427;-62
2021/07/21 02:44:21;;;;;;;1.95;1.20;;;19.10;99.90;;;;;;5055470;28;20533;-62
2021/07/21 02:46:49;;;;;;;1.73;1.10;;;19.00;99.90;;;;;;5055545;28;20512;-62
2021/07/21 02:49:19;;;;;;;2.05;1.30;;;18.90;99.90;;;;;;5055895;28;20517;-62
2021/07/21 02:51:52;;;;;;;1.85;1.25;;;18.80;99.90;;;;;;5055974;28;20504;-61
2021/07/21 02:54:31;;;;;;;2.90;1.20;;;18.80;99.90;;;;;;5056254;28;20447;-62
2021/07/21 02:57:03;;;;;;;2.45;1.20;;;18.80;99.90;;;;;;5055156;28;20511;-62
2021/07/21 02:59:38;;;;;;;2.75;1.15;;;18.80;99.90;;;;;;5054875;28;20517;-62
2021/07/21 03:02:07;;;;;;;1.85;1.10;;;18.90;99.90;;;;;;5054733;28;20428;-62
2021/07/21 03:04:35;;;;;;;2.75;1.30;;;18.90;99.90;;;;;;5054918;28;20512;-62
2021/07/21 03:07:06;;;;;;;3.10;1.30;;;18.80;99.90;;;;;;5054927;28;20421;-62
2021/07/21 03:09:35;;;;;;;2.30;1.20;;;18.80;99.90;;;;;;5055370;28;20511;-61
2021/07/21 03:12:08;;;;;;;2.33;1.20;;;18.80;99.90;;;;;;5054788;28;20453;-62
2021/07/21 03:14:38;;;;;;;2.47;1.30;;;18.80;99.90;;;;;;5054136;28;20473;-62
2021/07/21 03:17:07;;;;;;;2.40;1.25;;;18.80;99.90;;;;;;5054409;28;20512;-62
2021/07/21 03:19:38;;;;;;;2.20;1.10;;;18.80;99.90;;;;;;5053407;28;20524;-62
2021/07/21 03:22:08;;;;;;;1.95;1.30;;;18.80;99.90;;;;;;5053626;28;20448;-62
2021/07/21 03:24:36;;;;;;;1.90;1.20;;;18.80;99.90;;;;;;5054190;28;20523;-62
2021/07/21 03:27:04;;;;;;;3.10;1.30;;;18.60;99.90;;;;;;5054388;28;20414;-62
2021/07/21 03:29:32;;;;;;;2.00;1.40;;;18.50;99.90;;;;;;5055353;28;20429;-62
2021/07/21 03:31:59;;;;;;;2.50;1.40;;;18.40;99.90;;;;;;5053950;28;20844;-62
2021/07/21 03:34:27;;;;;;;3.10;1.40;;;18.30;99.90;;;;;;5053213;28;20733;-62
2021/07/21 03:36:55;;;;;;;1.98;1.20;;;18.40;99.90;;;;;;5052295;28;20516;-62
2021/07/21 03:39:25;;;;;;;1.77;1.05;;;18.40;99.90;;;;;;5052054;28;20519;-62
2021/07/21 03:41:53;;;;;;;3.05;1.50;;;18.50;99.90;;;;;;5053746;28;20852;-62
2021/07/21 03:44:24;;;;;;;2.80;1.10;;;18.60;99.90;;;;;;5053880;28;20464;-62
2021/07/21 03:46:51;;;;;;;2.50;1.30;;;18.60;99.90;;;;;;5053992;28;20443;-61
2021/07/21 03:49:20;;;;;;;1.50;1.10;;;18.50;99.90;;;;;;5053854;28;20528;-62
2021/07/21 03:51:48;;;;;;;2.22;1.25;;;18.60;99.90;;;;;;5055560;28;20456;-61
2021/07/21 03:54:17;;;;;;;2.33;1.20;;;18.50;99.90;;;;;;5053887;28;20464;-61
2021/07/21 03:56:46;;;;;;;2.60;1.27;;;18.60;99.90;;;;;;5053018;28;20507;-61
2021/07/21 03:59:16;;;;;;;2.30;1.30;;;18.60;99.90;;;;;;5053285;28;20429;-61
2021/07/21 04:01:44;;;;;;;2.30;1.40;;;18.60;99.90;;;;;;5054262;28;20820;-62
2021/07/21 04:04:13;;;;;;;2.40;1.70;;;18.60;99.90;;;;;;5054083;28;20620;-61
2021/07/21 04:06:42;;;;;;;2.60;1.38;;;18.60;99.90;;;;;;5053786;28;20457;-61
2021/07/21 04:09:13;;;;;;;2.00;1.10;;;18.50;99.90;;;;;;5053723;28;20888;-61
2021/07/21 04:11:41;;;;;;;2.50;1.70;;;18.30;99.90;;;;;;5052623;28;20424;-62
2021/07/21 04:14:13;;;;;;;4.10;1.35;;;18.20;99.90;;;;;;5052190;28;20472;-62
2021/07/21 04:16:41;;;;;;;2.85;1.30;;;18.10;99.90;;;;;;5053134;28;20429;-62
2021/07/21 04:19:09;;;;;;;2.10;1.40;;;18.20;99.90;;;;;;5054585;28;20528;-62
2021/07/21 04:21:38;;;;;;;1.90;1.30;;;18.20;99.90;;;;;;5054479;28;20428;-59
2021/07/21 04:24:08;;;;;;;2.45;1.38;;;18.30;99.90;;;;;;5053033;28;20548;-59
2021/07/21 04:26:35;;;;;;;1.90;1.25;;;18.30;99.90;;;;;;5053045;28;20504;-58
2021/07/21 04:29:03;;;;;;;2.30;1.40;;;18.40;99.90;;;;;;5052574;28;20520;-58
2021/07/21 04:31:32;;;;;;;2.10;1.40;;;18.30;99.90;;;;;;5052519;28;20799;-59
2021/07/21 04:34:00;;;;;;;2.78;1.20;;;18.30;99.90;;;;;;5051030;28;20433;-59
2021/07/21 04:36:27;;;;;;;3.50;1.50;;;18.40;99.90;;;;;;5051884;28;20456;-59
2021/07/21 04:38:54;;;;;;;2.95;1.40;;;18.50;99.90;;;;;;5053514;28;20526;-59
2021/07/21 04:41:23;;;;;;;1.85;1.20;;;18.50;99.90;;;;;;5050827;28;20898;-59
2021/07/21 04:43:50;;;;;;;3.60;1.70;;;18.50;99.90;;;;;;5053989;28;20429;-59
2021/07/21 04:46:19;;;;;;;2.30;1.40;;;18.30;99.90;;;;;;5056064;28;20924;-59
2021/07/21 04:48:48;;;;;;;2.70;1.40;;;18.00;99.90;;;;;;5053663;28;20495;-59
2021/07/21 04:51:18;;;;;;;2.80;1.48;;;18.00;99.90;;;;;;5057202;28;20464;-59
2021/07/21 04:53:45;;;;;;;2.10;1.30;;;18.20;99.90;;;;;;5056498;28;20510;-60
2021/07/21 04:56:11;;;;;;;2.90;1.20;;;18.40;99.90;;;;;;5066103;28;20526;-59
2021/07/21 04:58:39;;;;;;;2.42;1.50;;;18.60;99.90;;;;;;5053701;28;20512;-59
2021/07/21 05:01:05;;;;;;;3.45;1.40;;;18.80;99.90;;;;;;5068153;28;20511;-59
2021/07/21 05:03:33;;;;;;;3.67;1.35;;;18.70;99.90;;;;;;5072552;28;20514;-59
2021/07/21 05:06:02;;;;;;;2.22;1.40;;;18.60;99.90;;;;;;5056350;28;20425;-59
2021/07/21 05:08:29;;;;;;;2.30;1.60;;;18.50;99.90;;;;;;5051515;28;20504;-59
2021/07/21 05:10:56;;;;;;;2.65;1.80;;;18.60;99.90;;;;;;5065139;28;20600;-59
2021/07/21 05:13:23;;;;;;;3.60;1.55;;;18.40;99.90;;;;;;5071752;28;20514;-59
2021/07/21 05:15:50;;;;;;;3.00;1.50;;;18.40;99.90;;;;;;5069102;28;20450;-60
2021/07/21 05:18:17;;;;;;;3.85;1.60;;;18.60;99.90;;;;;;5068893;28;20750;-60
2021/07/21 05:20:44;;;;;;;2.40;1.40;;;18.70;99.90;;;;;;5057274;28;20481;-60
2021/07/21 05:23:13;;;;;;;2.40;1.50;;;18.60;99.90;;;;;;5050127;28;20889;-60
2021/07/21 05:25:41;;;;;;;3.00;1.40;;;18.50;99.90;;;;;;5068704;28;20523;-60
2021/07/21 05:28:09;;;;;;;2.33;1.30;;;18.30;99.90;;;;;;5070141;28;20511;-59
2021/07/21 05:30:37;;;;;;;3.30;1.30;;;18.30;99.90;;;;;;5051286;28;20519;-60
2021/07/21 05:33:05;;;;;;;2.58;1.40;;;18.50;99.90;;;;;;5050169;28;20545;-59
2021/07/21 05:35:32;;;;;;;2.50;1.43;;;18.80;99.90;;;;;;5068243;28;20434;-59
2021/07/21 05:37:59;;;;;;;3.25;1.40;;;18.90;99.90;;;;;;5074918;28;20455;-60
2021/07/21 05:40:27;;;;;;;2.42;1.30;;;19.10;99.90;;;;;;5055286;28;20528;-59
2021/07/21 05:42:54;;;;;;;2.28;1.50;;;19.30;99.90;;;;;;5052912;28;20891;-60
2021/07/21 05:45:21;;;;;;;2.38;1.30;;;19.50;99.90;;;;;;5054722;28;20475;-60
2021/07/21 05:47:48;;;;;;;2.58;1.40;;;19.60;99.90;;;;;;5053930;28;20425;-60
2021/07/21 05:50:15;;;;;;;3.10;1.70;;;19.50;99.90;;;;;;5063186;28;20435;-61
2021/07/21 05:52:42;;;;;;;3.00;1.52;;;19.50;99.90;;;;;;5054224;28;20480;-60
2021/07/21 05:55:10;;;;;;;2.50;1.60;;;19.50;99.90;;;;;;5057124;28;20527;-60
2021/07/21 05:57:39;;;;;;;2.60;1.40;;;19.30;99.90;;;;;;5053661;28;20508;-60
2021/07/21 06:00:07;;;;;;;1.80;1.30;;;19.10;99.90;;;;;;5067099;28;20432;-59
2021/07/21 06:02:34;;;;;;;3.10;1.40;;;19.00;99.90;;;;;;5073587;28;20473;-60
2021/07/21 06:05:01;;;;;;;2.60;1.77;;;19.20;99.90;;;;;;5070826;28;20434;-60
2021/07/21 06:07:28;;;;;;;3.40;1.30;;;19.30;99.90;;;;;;5067213;28;20452;-59
2021/07/21 06:09:55;;;;;;;2.80;1.60;;;19.30;99.90;;;;;;5061888;28;20867;-59
2021/07/21 06:12:22;;;;;;;3.30;2.20;;;19.10;99.90;;;;;;5072446;28;20510;-60
2021/07/21 06:14:54;;;;;;;2.70;1.30;;;19.20;99.90;;;;;;5072749;28;20944;-59
2021/07/21 06:17:21;;;;;;;2.42;1.50;;;19.30;99.90;;;;;;5074097;28;20580;-59
2021/07/21 06:19:49;;;;;;;2.65;1.80;;;19.30;99.90;;;;;;5075343;28;20530;-59
2021/07/21 06:22:18;;;;;;;2.20;1.70;;;19.50;99.90;;;;;;5076655;28;20415;-59
2021/07/21 06:24:46;;;;;;;2.10;1.48;;;19.50;99.90;;;;;;5065105;28;20500;-60
2021/07/21 06:27:15;;;;;;;2.78;1.40;;;19.50;99.90;;;;;;5059488;28;20420;-59
2021/07/21 06:29:45;;;;;;;2.60;1.60;;;19.70;99.90;;;;;;5062167;28;20745;-59
2021/07/21 06:32:14;;;;;;;3.50;1.40;;;19.90;99.90;;;;;;5056990;28;20417;-59
2021/07/21 06:34:41;;;;;;;4.13;1.98;;;19.90;99.90;;;;;;5073516;28;20502;-59
2021/07/21 06:37:08;;;;;;;3.60;1.52;;;19.90;99.90;;;;;;5071478;28;20438;-60
2021/07/21 06:39:35;;;;;;;3.50;2.10;;;19.60;99.90;;;;;;5067882;28;20474;-59
2021/07/21 06:42:02;;;;;;;2.67;1.40;;;19.60;99.90;;;;;;5067393;28;20431;-59
2021/07/21 06:44:29;;;;;;;2.95;1.63;;;19.70;99.90;;;;;;5060180;28;20431;-59
2021/07/21 06:46:57;;;;;;;4.63;2.60;;;19.70;99.90;;;;;;5061811;28;20414;-60
2021/07/21 06:49:26;;;;;;;2.03;1.30;;;19.40;99.90;;;;;;5051549;28;20464;-59
2021/07/21 06:51:52;;;;;;;3.97;1.58;;;19.50;99.90;;;;;;5049661;28;20807;-59
2021/07/21 06:54:19;;;;;;;3.75;1.80;;;19.70;99.90;;;;;;5051336;28;20495;-58
2021/07/21 06:56:46;;;;;;;2.78;1.85;;;20.00;99.90;;;;;;5052228;28;20819;-58
2021/07/21 06:59:13;;;;;;;2.20;1.73;;;20.30;99.90;;;;;;5051357;28;20524;-59
2021/07/21 07:01:40;;;;;;;2.80;2.00;;;20.40;99.90;;;;;;5051672;28;20512;-60
2021/07/21 07:04:07;;;;;;;3.90;1.67;;;20.60;99.90;;;;;;5050979;28;20756;-60
2021/07/21 07:06:37;;;;;;;2.28;1.60;;;20.70;99.90;;;;;;5052314;28;20900;-60
2021/07/21 07:09:05;;;;;;;3.75;1.70;;;20.80;99.90;;;;;;5053239;28;20937;-60
2021/07/21 07:11:33;;;;;;;4.28;1.92;;;20.90;99.90;;;;;;5056886;28;20510;-60
2021/07/21 07:14:00;;;;;;;2.40;1.75;;;20.60;99.90;;;;;;5055467;28;20521;-60
2021/07/21 07:16:27;;;;;;;2.58;1.70;;;20.40;99.90;;;;;;5049507;28;20433;-60
2021/07/21 07:18:53;;;;;;;4.55;1.98;;;20.50;99.90;;;;;;5049423;28;20543;-58
2021/07/21 07:21:21;;;;;;;2.57;1.70;;;20.60;99.90;;;;;;5058810;28;20510;-60
2021/07/21 07:23:53;;;;;;;2.80;1.90;;;20.60;99.90;;;;;;5067847;28;20438;-60
2021/07/21 07:26:20;;;;;;;2.83;1.70;;;20.60;99.90;;;;;;5063697;28;20413;-60
2021/07/21 07:28:47;;;;;;;3.37;1.80;;;20.80;99.90;;;;;;5051400;28;20536;-60
2021/07/21 07:31:14;;;;;;;6.03;1.80;;;20.90;99.90;;;;;;5057180;28;20511;-60
2021/07/21 07:33:41;;;;;;;3.00;2.10;;;21.00;99.90;;;;;;5072724;28;20518;-59
2021/07/21 07:36:08;;;;;;;4.18;1.70;;;21.00;99.90;;;;;;5069519;28;20523;-60
2021/07/21 07:38:35;;;;;;;21.67;4.50;;;21.00;99.90;;;;;;5064347;28;20438;-59
2021/07/21 07:41:04;;;;;;;11.68;2.70;;;21.20;99.90;;;;;;5059526;28;20427;-60
2021/07/21 07:43:31;;;;;;;5.00;2.17;;;21.30;99.90;;;;;;5050801;28;20500;-60
2021/07/21 07:45:58;;;;;;;6.22;1.95;;;21.20;99.90;;;;;;5069927;28;20447;-60
2021/07/21 07:48:26;;;;;;;4.55;2.00;;;21.40;99.90;;;;;;5057551;28;20431;-60
2021/07/21 07:50:53;;;;;;;6.10;1.80;;;21.60;99.90;;;;;;5050554;28;20825;-59
2021/07/21 07:53:20;;;;;;;3.95;1.77;;;21.90;99.90;;;;;;5067329;28;20422;-60
2021/07/21 07:55:47;;;;;;;3.50;2.00;;;21.80;99.90;;;;;;5070519;28;20429;-58
2021/07/21 07:58:15;;;;;;;4.82;1.90;;;21.90;99.90;;;;;;5066618;28;20748;-60
2021/07/21 08:00:42;;;;;;;3.50;1.70;;;21.70;99.90;;;;;;5052303;28;20427;-59
2021/07/21 08:03:09;;;;;;;3.00;1.60;;;21.80;99.90;;;;;;5051145;28;20517;-60
2021/07/21 08:05:37;;;;;;;3.70;2.00;;;21.90;99.90;;;;;;5060332;28;20451;-60
2021/07/21 08:08:05;;;;;;;2.90;1.60;;;22.10;99.90;;;;;;5071768;28;20519;-59
2021/07/21 08:10:32;;;;;;;2.50;1.80;;;22.00;99.90;;;;;;5055839;28;20516;-59
2021/07/21 08:13:02;;;;;;;3.33;1.65;;;22.00;99.90;;;;;;5071318;28;20766;-60
2021/07/21 08:15:31;;;;;;;3.75;1.60;;;22.20;99.90;;;;;;5071036;28;20455;-60
2021/07/21 08:18:00;;;;;;;4.22;1.90;;;22.00;99.90;;;;;;5071371;28;20432;-59
2021/07/21 08:20:27;;;;;;;2.17;1.60;;;22.10;99.90;;;;;;5071974;28;20439;-60
2021/07/21 08:22:53;;;;;;;3.10;1.70;;;22.20;99.90;;;;;;5057127;28;20528;-61
2021/07/21 08:25:23;;;;;;;7.60;2.20;;;22.30;99.90;;;;;;5069349;28;20439;-61
2021/07/21 08:27:50;;;;;;;7.97;2.67;;;22.40;99.90;;;;;;5066049;28;20989;-60
2021/07/21 08:30:17;;;;;;;3.40;1.70;;;22.50;99.90;;;;;;5071580;28;20449;-60
2021/07/21 08:32:48;;;;;;;4.80;2.50;;;22.70;99.90;;;;;;5063261;28;20889;-59
2021/07/21 08:35:16;;;;;;;3.30;1.90;;;22.80;99.90;;;;;;5062382;28;20724;-60
2021/07/21 08:37:43;;;;;;;3.80;1.80;;;22.80;99.90;;;;;;5054621;28;20884;-60
2021/07/21 08:40:12;;;;;;;2.28;1.80;;;22.70;99.90;;;;;;5055306;28;20745;-61
2021/07/21 08:42:39;;;;;;;5.35;1.73;;;22.60;99.90;;;;;;5059462;28;20762;-60
2021/07/21 08:45:08;;;;;;;3.08;1.90;;;22.50;99.90;;;;;;5052760;28;20419;-59
2021/07/21 08:47:35;;;;;;;3.20;1.60;;;22.60;99.90;;;;;;5066176;28;20431;-59
2021/07/21 08:50:05;;;;;;;2.20;1.90;;;22.70;99.90;;;;;;5068206;28;20423;-59
2021/07/21 08:52:32;;;;;;;3.00;1.63;;;22.70;99.90;;;;;;5064389;28;20725;-58
2021/07/21 08:55:01;;;;;;;2.70;1.60;;;22.80;99.90;;;;;;5069190;28;20434;-59
2021/07/21 08:57:30;;;;;;;5.00;1.50;;;22.80;99.90;;;;;;5052077;28;20534;-59
2021/07/21 08:59:59;;;;;;;3.50;1.73;;;22.90;99.90;;;;;;5049921;28;20437;-59
2021/07/21 09:02:26;;;;;;;2.90;1.40;;;22.90;99.90;;;;;;5049094;28;20421;-58
2021/07/21 09:04:54;;;;;;;4.10;1.70;;;22.80;99.90;;;;;;5063507;28;20731;-58
2021/07/21 09:07:22;;;;;;;3.30;1.67;;;22.90;99.90;;;;;;5055372;28;20423;-59
2021/07/21 09:09:49;;;;;;;2.70;1.60;;;23.20;99.90;;;;;;5054548;28;20944;-59
2021/07/21 09:12:16;;;;;;;3.10;1.80;;;23.30;99.90;;;;;;5057390;28;20603;-58
2021/07/21 09:14:44;;;;;;;2.00;1.50;;;23.40;99.90;;;;;;5057340;28;20525;-58
2021/07/21 09:17:13;;;;;;;2.90;1.60;;;23.60;99.90;;;;;;5051001;28;20527;-58
2021/07/21 09:19:42;;;;;;;3.17;1.50;;;23.60;99.90;;;;;;5053183;28;20547;-58
2021/07/21 09:22:17;;;;;;;2.60;1.70;;;23.60;99.90;;;;;;5057911;28;20962;-58
2021/07/21 09:24:46;;;;;;;4.10;1.50;;;23.80;99.90;;;;;;5058704;28;20522;-59
2021/07/21 09:27:13;;;;;;;2.50;1.30;;;23.80;99.90;;;;;;5068866;28;20466;-59
2021/07/21 09:29:42;;;;;;;4.00;1.70;;;23.90;99.90;;;;;;5051714;28;20619;-58
2021/07/21 09:32:10;;;;;;;2.80;1.80;;;23.90;99.90;;;;;;5052508;28;20431;-58
2021/07/21 09:34:36;;;;;;;2.33;1.52;;;24.00;99.90;;;;;;5068453;28;20482;-58
2021/07/21 09:37:07;;;;;;;2.65;1.50;;;24.20;99.90;;;;;;5064222;28;20433;-59
2021/07/21 09:39:39;;;;;;;2.38;1.48;;;24.20;99.90;;;;;;5074244;28;20826;-58
2021/07/21 09:42:09;;;;;;;2.67;1.50;;;24.30;99.90;;;;;;5069126;28;20812;-58
2021/07/21 09:44:38;;;;;;;2.35;1.67;;;24.50;99.90;;;;;;5077915;28;20427;-59
2021/07/21 09:47:14;;;;;;;3.25;1.40;;;24.50;99.90;;;;;;5091518;28;20521;-59
2021/07/21 09:49:42;;;;;;;2.30;1.70;;;24.50;99.90;;;;;;5094309;28;20506;-59
2021/07/21 09:52:18;;;;;;;2.15;1.70;;;24.40;99.90;;;;;;5089872;28;20514;-59
2021/07/21 09:55:05;;;;;;;2.88;1.50;;;24.60;99.90;;;;;;5061136;28;20861;-59
2021/07/21 09:57:33;;;;;;;2.28;1.30;;;24.70;99.90;;;;;;5064719;28;20934;-58
2021/07/21 10:00:16;;;;;;;2.33;1.40;;;24.70;99.90;;;;;;5072206;28;20527;-58
2021/07/21 10:02:43;;;;;;;2.50;1.50;;;25.00;99.90;;;;;;5055050;28;20439;-59
2021/07/21 10:05:10;;;;;;;1.90;1.30;;;25.00;99.90;;;;;;5053258;28;20932;-59
2021/07/21 10:07:48;;;;;;;3.55;1.95;;;25.10;99.90;;;;;;5055012;28;20432;-58
2021/07/21 10:10:17;;;;;;;2.00;1.40;;;25.30;99.90;;;;;;5060615;28;20472;-59
2021/07/21 10:12:57;;;;;;;3.10;1.80;;;25.30;99.90;;;;;;5068373;28;20529;-59
2021/07/21 10:15:24;;;;;;;4.20;1.60;;;25.70;99.90;;;;;;5054905;28;20449;-55
2021/07/21 10:18:08;;;;;;;3.50;1.50;;;25.80;99.90;;;;;;5064351;28;20427;-58
2021/07/21 10:20:35;;;;;;;2.88;1.70;;;25.80;99.90;;;;;;5055000;28;20576;-58
2021/07/21 10:23:03;;;;;;;2.90;1.70;;;25.70;99.90;;;;;;5064032;28;20429;-59
2021/07/21 10:25:31;;;;;;;2.85;1.50;;;25.70;99.90;;;;;;5051290;28;20425;-59
2021/07/21 10:27:59;;;;;;;3.33;1.88;;;25.90;99.90;;;;;;5050002;28;20428;-60
2021/07/21 10:30:27;;;;;;;1.90;1.42;;;25.90;99.90;;;;;;5055802;28;20784;-59
2021/07/21 10:32:56;;;;;;;2.20;1.20;;;26.40;99.90;;;;;;5058615;28;20706;-59
2021/07/21 10:35:23;;;;;;;2.80;1.40;;;26.70;99.90;;;;;;5053793;28;20433;-59
2021/07/21 10:37:52;;;;;;;2.75;1.60;;;27.10;99.90;;;;;;5066081;28;20746;-59
2021/07/21 10:40:20;;;;;;;1.85;1.40;;;27.20;99.90;;;;;;5070993;28;20850;-59
2021/07/21 10:42:47;;;;;;;1.85;1.40;;;27.50;99.90;;;;;;5064317;28;20490;-59
2021/07/21 10:45:17;;;;;;;2.70;1.30;;;27.50;99.90;;;;;;5067723;28;20520;-59
2021/07/21 10:47:46;;;;;;;3.35;1.55;;;27.40;99.90;;;;;;5065057;28;20434;-59
2021/07/21 10:50:28;;;;;;;2.55;1.50;;;27.40;99.90;;;;;;5064440;28;20432;-60
2021/07/21 10:53:34;;;;;;;3.60;1.55;;;27.80;99.90;;;;;;5068064;28;20459;-60
2021/07/21 10:59:19;;;;;;;2.40;1.60;;;28.20;99.90;;;;;;5048877;28;20427;-59
2021/07/21 11:01:49;;;;;;;2.03;1.38;;;28.00;99.90;;;;;;5065162;28;20633;-60
2021/07/21 11:04:17;;;;;;;2.38;1.60;;;28.40;99.90;;;;;;5056842;28;20449;-60
2021/07/21 11:06:46;;;;;;;3.40;2.00;;;28.40;99.90;;;;;;5054951;28;21089;-60
2021/07/21 11:09:22;;;;;;;2.40;1.50;;;28.90;99.90;;;;;;5056329;28;20530;-63
2021/07/21 11:11:52;;;;;;;2.03;1.67;;;28.90;99.60;;;;;;5060257;28;20433;-64
2021/07/21 11:14:21;;;;;;;4.00;1.50;;;29.10;99.90;;;;;;5060219;28;20437;-64
2021/07/21 11:16:51;;;;;;;2.70;1.50;;;29.40;99.20;;;;;;5060762;28;20908;-63
2021/07/21 11:19:34;;;;;;;2.00;1.48;;;29.60;97.90;;;;;;5065874;28;20867;-64
2021/07/21 11:22:05;;;;;;;1.95;1.60;;;29.90;96.80;;;;;;5050779;28;20426;-64
2021/07/21 11:25:06;;;;;;;1.90;1.30;;;29.20;95.90;;;;;;5050731;28;20648;-64
2021/07/21 11:27:49;;;;;;;2.42;1.83;;;29.10;97.30;;;;;;5056736;28;20495;-64
2021/07/21 11:30:49;;;;;;;2.10;1.30;;;29.40;96.70;;;;;;5069374;28;20874;-64
2021/07/21 11:33:55;;;;;;;1.90;1.38;;;29.60;95.50;;;;;;4987332;28;20432;-63
2021/07/21 11:36:55;;;;;;;2.28;1.20;;;29.80;94.50;;;;;;5049844;28;20774;-64
2021/07/21 11:39:50;;;;;;;2.80;1.90;;;29.40;94.70;;;;;;5060623;28;20446;-64
2021/07/21 11:42:33;;;;;;;2.27;1.50;;;29.60;93.80;;;;;;5008308;28;20513;-64
2021/07/21 11:45:13;;;;;;;2.47;1.50;;;29.80;93.70;;;;;;5057620;28;20425;-64
2021/07/21 11:47:43;;;;;;;2.55;1.70;;;30.00;93.00;;;;;;5049691;28;20425;-65
2021/07/21 11:50:14;;;;;;;2.80;1.77;;;29.50;92.60;;;;;;5064019;28;20427;-64
2021/07/21 11:52:41;;;;;;;2.60;1.60;;;29.10;93.10;;;;;;5067927;28;20782;-64
2021/07/21 11:55:09;;;;;;;1.77;1.30;;;29.00;93.80;;;;;;5068342;28;20522;-63
2021/07/21 11:57:36;;;;;;;2.00;1.50;;;29.30;94.30;;;;;;5057201;28;20528;-63
2021/07/21 12:00:05;;;;;;;2.60;1.85;;;29.80;92.80;;;;;;5048252;28;20813;-63
2021/07/21 12:02:32;;;;;;;2.77;1.77;;;29.90;92.00;;;;;;5052167;28;20905;-63
2021/07/21 12:05:04;;;;;;;2.50;1.85;;;29.60;92.90;;;;;;5051984;28;20530;-61
2021/07/21 12:07:35;;;;;;;3.33;2.20;;;29.50;93.10;;;;;;5054945;28;20443;-62
2021/07/21 12:10:10;;;;;;;2.38;1.50;;;30.00;93.30;;;;;;5048058;28;20718;-62
2021/07/21 12:12:37;;;;;;;3.15;1.70;;;30.30;92.20;;;;;;5066844;28;20861;-62
2021/07/21 12:15:06;;;;;;;1.98;1.50;;;30.40;91.90;;;;;;5062430;28;20520;-62
2021/07/21 12:17:33;;;;;;;2.80;1.40;;;29.70;92.30;;;;;;5060528;28;20436;-61
2021/07/21 12:20:03;;;;;;;2.60;1.60;;;29.20;93.50;;;;;;5057720;28;20468;-63
2021/07/21 12:22:33;;;;;;;4.43;2.03;;;28.50;94.80;;;;;;5051041;28;20421;-62
2021/07/21 12:25:05;;;;;;;3.38;1.50;;;28.20;95.40;;;;;;5064100;28;20528;-63
2021/07/21 12:27:33;;;;;;;2.50;1.60;;;28.60;95.90;;;;;;5066340;28;20850;-63
2021/07/21 12:30:01;;;;;;;1.90;1.50;;;29.20;95.10;;;;;;5058616;28;20521;-63
2021/07/21 12:32:29;;;;;;;2.45;1.75;;;29.50;94.50;;;;;;5056045;28;20503;-63
2021/07/21 12:34:57;;;;;;;2.53;1.52;;;29.70;93.60;;;;;;5063568;28;20435;-64
2021/07/21 12:37:26;;;;;;;2.05;1.50;;;30.10;92.60;;;;;;5050673;28;20456;-63
2021/07/21 12:39:56;;;;;;;2.13;1.70;;;30.50;92.60;;;;;;5057212;28;20549;-63
2021/07/21 12:42:24;;;;;;;3.13;1.70;;;30.80;92.00;;;;;;5049870;28;20448;-64
2021/07/21 12:44:53;;;;;;;2.00;1.50;;;31.00;91.70;;;;;;5053472;28;20798;-64
2021/07/21 12:47:21;;;;;;;3.42;1.70;;;30.80;91.00;;;;;;5053202;28;20525;-63
2021/07/21 12:49:50;;;;;;;2.78;1.70;;;30.70;91.30;;;;;;5048018;28;20507;-64
2021/07/21 12:52:20;;;;;;;2.40;1.90;;;30.70;90.60;;;;;;5051450;28;20431;-61
2021/07/21 12:54:48;;;;;;;2.58;1.80;;;30.80;90.90;;;;;;5047600;28;20435;-63
2021/07/21 12:57:32;;;;;;;1.98;1.60;;;30.60;90.10;;;;;;5047880;28;21030;-63
2021/07/21 13:00:04;;;;;;;2.50;1.63;;;30.30;90.90;;;;;;5051236;28;20439;-63
2021/07/21 13:02:32;;;;;;;2.80;1.80;;;30.20;91.40;;;;;;5065032;28;20817;-61
2021/07/21 13:04:59;;;;;;;2.47;1.38;;;29.70;90.90;;;;;;5071111;28;20522;-63
2021/07/21 13:07:27;;;;;;;2.30;1.65;;;29.80;91.70;;;;;;5069665;28;20407;-63
2021/07/21 13:09:55;;;;;;;3.45;1.65;;;29.60;91.50;;;;;;5069227;28;20451;-63